createdAt,value
2023-04-16T00:01:40.334Z,64.50
2023-04-16T00:04:08.240Z,64.47
2023-04-16T00:06:36.575Z,64.47
2023-04-16T00:09:04.467Z,64.67
2023-04-16T00:11:32.227Z,64.19
2023-04-16T00:14:00.070Z,64.20
2023-04-16T00:16:28.146Z,64.11
2023-04-16T00:18:55.979Z,64.17
2023-04-16T00:21:23.756Z,63.90
2023-04-16T00:23:51.558Z,63.89
2023-04-16T00:26:19.662Z,63.94
2023-04-16T00:28:48.027Z,64.11
2023-04-16T00:31:16.119Z,64.19
2023-04-16T00:33:43.972Z,64.68
2023-04-16T00:36:11.677Z,64.82
2023-04-16T00:38:39.522Z,64.74
2023-04-16T00:41:07.248Z,64.65
2023-04-16T00:43:35.078Z,64.70
2023-04-16T00:46:05.834Z,64.64
2023-04-16T00:48:34.606Z,64.67
2023-04-16T00:51:04.996Z,64.54
2023-04-16T00:53:34.192Z,64.64
2023-04-16T00:56:06.339Z,64.22
2023-04-16T00:58:34.945Z,64.18
2023-04-16T01:01:02.755Z,63.93
2023-04-16T01:03:43.405Z,63.92
2023-04-16T01:06:11.775Z,63.87
2023-04-16T01:08:40.173Z,63.92
2023-04-16T01:11:08.235Z,64.02
2023-04-16T01:13:39.368Z,64.32
2023-04-16T01:16:08.932Z,64.58
2023-04-16T01:18:37.545Z,64.27
2023-04-16T01:21:05.609Z,64.24
2023-04-16T01:23:34.254Z,63.96
2023-04-16T01:26:03.454Z,63.88
2023-04-16T01:28:31.355Z,64.03
2023-04-16T01:30:59.130Z,64.05
2023-04-16T01:33:56.500Z,63.85
2023-04-16T01:36:24.651Z,63.82
2023-04-16T01:38:52.402Z,64.00
2023-04-16T01:41:20.324Z,64.51
2023-04-16T01:43:48.109Z,64.59
2023-04-16T01:46:20.578Z,64.88
2023-04-16T01:48:48.995Z,64.84
2023-04-16T01:51:16.857Z,64.66
2023-04-16T01:53:45.839Z,65.12
2023-04-16T01:56:13.848Z,64.99
2023-04-16T01:58:47.126Z,65.24
2023-04-16T02:01:16.176Z,65.40
2023-04-16T02:03:45.335Z,65.29
2023-04-16T02:06:13.721Z,65.43
2023-04-16T02:08:41.927Z,65.84
2023-04-16T02:11:09.663Z,65.93
2023-04-16T02:13:37.565Z,65.99
2023-04-16T02:16:06.239Z,65.48
2023-04-16T02:18:57.435Z,65.23
2023-04-16T02:21:26.089Z,65.05
2023-04-16T02:23:53.853Z,64.89
2023-04-16T02:26:26.657Z,65.08
2023-04-16T02:28:55.285Z,65.15
2023-04-16T02:31:25.640Z,65.38
2023-04-16T02:33:53.428Z,65.59
2023-04-16T02:36:21.728Z,65.63
2023-04-16T02:38:49.512Z,65.45
2023-04-16T02:41:17.400Z,65.61
2023-04-16T02:43:45.389Z,65.56
2023-04-16T02:46:13.262Z,65.56
2023-04-16T02:48:41.725Z,65.59
2023-04-16T02:51:09.548Z,65.72
2023-04-16T02:53:37.485Z,65.66
2023-04-16T02:56:05.988Z,65.84
2023-04-16T02:58:33.783Z,66.15
2023-04-16T03:01:01.965Z,66.12
2023-04-16T03:03:29.919Z,66.53
2023-04-16T03:05:57.665Z,66.87
2023-04-16T03:08:25.925Z,67.00
2023-04-16T03:10:54.112Z,67.04
2023-04-16T03:13:21.859Z,66.51
2023-04-16T03:15:50.101Z,66.21
2023-04-16T03:18:17.950Z,66.02
2023-04-16T03:20:45.849Z,66.06
2023-04-16T03:23:13.669Z,65.99
2023-04-16T03:25:41.629Z,65.78
2023-04-16T03:28:09.936Z,65.90
2023-04-16T03:30:38.982Z,65.84
2023-04-16T03:33:07.108Z,65.63
2023-04-16T03:35:36.018Z,65.54
2023-04-16T03:38:04.160Z,65.66
2023-04-16T03:40:32.212Z,65.60
2023-04-16T03:43:00.495Z,65.21
2023-04-16T03:45:29.660Z,65.25
2023-04-16T03:47:57.815Z,65.16
2023-04-16T03:50:26.613Z,65.17
2023-04-16T03:52:54.537Z,65.28
2023-04-16T03:55:22.308Z,65.25
2023-04-16T03:57:50.142Z,65.09
2023-04-16T04:00:18.505Z,65.09
2023-04-16T04:02:56.188Z,65.51
2023-04-16T04:05:24.690Z,65.56
2023-04-16T04:07:52.812Z,65.74
2023-04-16T04:10:20.576Z,65.77
2023-04-16T04:12:48.361Z,65.62
2023-04-16T04:15:16.359Z,65.94
2023-04-16T04:17:44.265Z,65.84
2023-04-16T04:20:12.509Z,66.10
2023-04-16T04:22:43.454Z,66.12
2023-04-16T04:25:12.831Z,65.98
2023-04-16T04:27:40.851Z,65.64
2023-04-16T04:30:09.855Z,66.12
2023-04-16T04:32:38.039Z,66.36
2023-04-16T04:35:06.643Z,66.31
2023-04-16T04:37:34.933Z,66.10
2023-04-16T04:40:09.682Z,66.23
2023-04-16T04:42:38.104Z,66.78
2023-04-16T04:45:06.867Z,66.85
2023-04-16T04:47:35.160Z,67.41
2023-04-16T04:50:02.888Z,67.65
2023-04-16T04:52:31.281Z,67.86
2023-04-16T04:54:59.026Z,67.56
2023-04-16T04:57:26.772Z,67.45
2023-04-16T04:59:55.467Z,67.63
2023-04-16T05:02:23.859Z,67.63
2023-04-16T05:04:51.726Z,67.88
2023-04-16T05:07:19.675Z,67.98
2023-04-16T05:09:47.426Z,67.69
2023-04-16T05:12:15.248Z,67.41
2023-04-16T05:14:43.101Z,67.23
2023-04-16T05:17:11.066Z,66.81
2023-04-16T05:19:38.823Z,66.80
2023-04-16T05:22:06.740Z,66.55
2023-04-16T05:24:34.651Z,66.50
2023-04-16T05:27:02.398Z,66.51
2023-04-16T05:29:30.113Z,66.70
2023-04-16T05:31:58.065Z,67.06
2023-04-16T05:34:26.293Z,67.18
2023-04-16T05:36:54.277Z,67.42
2023-04-16T05:39:22.423Z,67.16
2023-04-16T05:41:50.365Z,67.23
2023-04-16T05:44:18.265Z,67.75
2023-04-16T05:46:46.299Z,67.73
2023-04-16T05:49:14.387Z,67.50
2023-04-16T05:51:42.361Z,67.80
2023-04-16T05:54:10.417Z,68.13
2023-04-16T05:56:38.603Z,68.38
2023-04-16T05:59:06.556Z,68.40
2023-04-16T06:01:34.514Z,69.00
2023-04-16T06:04:02.624Z,69.53
2023-04-16T06:06:30.861Z,69.91
2023-04-16T06:08:58.956Z,70.20
2023-04-16T06:11:27.624Z,70.29
2023-04-16T06:13:55.535Z,70.65
2023-04-16T06:16:23.527Z,70.52
2023-04-16T06:18:51.366Z,70.09
2023-04-16T06:21:19.291Z,70.17
2023-04-16T06:23:47.774Z,70.46
2023-04-16T06:26:16.061Z,69.97
2023-04-16T06:28:44.059Z,69.71
2023-04-16T06:31:12.023Z,69.56
2023-04-16T06:33:39.970Z,69.16
2023-04-16T06:36:07.772Z,69.23
2023-04-16T06:38:36.357Z,68.96
2023-04-16T06:41:04.594Z,68.53
2023-04-16T06:43:33.904Z,68.36
2023-04-16T06:46:01.742Z,68.15
2023-04-16T06:48:30.069Z,67.89
2023-04-16T06:50:57.978Z,67.11
2023-04-16T06:53:26.127Z,66.40
2023-04-16T06:55:54.233Z,66.55
2023-04-16T06:58:22.496Z,66.49
2023-04-16T07:00:50.513Z,66.16
2023-04-16T07:03:18.923Z,65.78
2023-04-16T07:05:47.189Z,66.22
2023-04-16T07:08:15.602Z,65.86
2023-04-16T07:10:43.983Z,65.71
2023-04-16T07:13:11.779Z,65.81
2023-04-16T07:15:39.883Z,65.77
2023-04-16T07:18:07.731Z,65.71
2023-04-16T07:20:36.513Z,66.07
2023-04-16T07:23:07.331Z,66.37
2023-04-16T07:25:35.213Z,66.40
2023-04-16T07:28:03.942Z,65.79
2023-04-16T07:30:34.776Z,65.88
2023-04-16T07:33:06.134Z,66.20
2023-04-16T07:35:34.211Z,66.49
2023-04-16T07:38:02.156Z,66.80
2023-04-16T07:40:30.069Z,66.98
2023-04-16T07:42:57.966Z,66.89
2023-04-16T07:45:25.953Z,66.83
2023-04-16T07:47:54.065Z,66.65
2023-04-16T07:50:22.731Z,66.40
2023-04-16T07:52:50.828Z,66.62
2023-04-16T07:55:18.719Z,66.76
2023-04-16T07:57:46.615Z,66.94
2023-04-16T13:02:56.264Z,27.80
2023-04-16T13:05:23.196Z,28.23
2023-04-16T13:07:49.670Z,27.85
2023-04-16T13:10:16.000Z,26.97
2023-04-16T13:12:42.398Z,27.06
2023-04-16T13:15:09.866Z,27.86
2023-04-16T13:17:36.432Z,27.96
2023-04-16T13:20:03.079Z,27.55
2023-04-16T13:22:29.824Z,27.70
2023-04-16T13:24:56.533Z,27.30
2023-04-16T13:27:23.191Z,26.44
2023-04-16T13:29:49.541Z,26.20
2023-04-16T13:32:16.663Z,26.23
2023-04-16T13:34:43.093Z,25.66
2023-04-16T13:37:09.555Z,25.33
2023-04-16T13:39:35.955Z,25.61
2023-04-16T13:42:02.320Z,24.96
2023-04-16T13:44:28.988Z,24.25
2023-04-16T13:46:56.117Z,24.08
2023-04-16T13:49:22.804Z,24.47
2023-04-16T13:51:49.206Z,24.21
2023-04-16T13:54:15.523Z,23.41
2023-04-16T13:56:41.886Z,23.27
2023-04-16T13:59:08.652Z,23.15
2023-04-16T14:01:35.395Z,21.89
2023-04-16T14:04:05.713Z,21.96
2023-04-16T14:06:33.446Z,21.28
2023-04-16T14:09:00.587Z,21.65
2023-04-16T14:11:27.091Z,21.37
2023-04-16T14:13:53.540Z,21.57
2023-04-16T14:16:20.223Z,21.80
2023-04-16T14:18:46.853Z,22.11
2023-04-16T14:21:13.206Z,21.60
2023-04-16T14:23:39.808Z,21.52
2023-04-16T14:26:06.247Z,21.60
2023-04-16T14:28:32.805Z,21.52
2023-04-16T14:30:59.134Z,21.36
2023-04-16T14:33:25.712Z,20.69
2023-04-16T14:35:52.236Z,20.16
2023-04-16T14:38:18.602Z,20.66
2023-04-16T14:40:45.041Z,20.46
2023-04-16T14:43:11.451Z,20.27
2023-04-16T14:45:38.331Z,19.57
2023-04-16T14:48:05.628Z,19.34
2023-04-16T14:50:37.173Z,20.01
2023-04-16T14:53:04.488Z,20.46
2023-04-16T14:55:31.530Z,20.53
2023-04-16T14:57:58.984Z,21.03
2023-04-16T15:00:25.606Z,20.43
2023-04-16T15:02:53.079Z,20.01
2023-04-16T15:05:19.732Z,18.51
2023-04-16T15:07:46.749Z,18.57
2023-04-16T15:10:13.518Z,18.86
2023-04-16T15:12:40.411Z,18.07
2023-04-16T15:15:07.856Z,18.25
2023-04-16T15:17:34.418Z,19.22
2023-04-16T15:20:00.984Z,19.19
2023-04-16T15:22:27.432Z,20.04
2023-04-16T15:24:53.818Z,20.42
2023-04-16T15:27:20.386Z,20.77
2023-04-16T15:29:48.773Z,21.76
2023-04-16T15:32:15.451Z,22.85
2023-04-16T15:34:42.817Z,23.51
2023-04-16T15:37:09.646Z,24.22
2023-04-16T15:39:35.998Z,24.78
2023-04-16T15:42:06.513Z,24.45
2023-04-16T15:44:34.156Z,24.80
2023-04-16T15:47:00.652Z,25.05
2023-04-16T15:49:27.093Z,26.12
2023-04-16T15:51:53.805Z,27.50
2023-04-16T15:54:21.407Z,27.52
2023-04-16T15:56:47.927Z,26.21
2023-04-16T15:59:14.319Z,25.12
2023-04-16T16:01:40.975Z,23.70
2023-04-16T16:04:08.321Z,22.99
2023-04-16T16:06:35.229Z,22.71
2023-04-16T16:09:01.975Z,21.78
2023-04-16T16:11:28.522Z,21.33
2023-04-16T16:13:54.863Z,20.70
2023-04-16T16:16:21.333Z,19.94
2023-04-16T16:18:48.149Z,19.73
2023-04-16T16:21:14.618Z,19.99
2023-04-16T16:23:41.346Z,19.59
2023-04-16T16:26:08.642Z,19.58
2023-04-16T16:28:37.153Z,19.26
2023-04-16T16:31:05.186Z,20.16
2023-04-16T16:33:31.560Z,21.65
2023-04-16T16:35:58.166Z,23.29
2023-04-16T16:38:25.239Z,25.14
2023-04-16T16:40:51.750Z,26.74
2023-04-16T16:43:18.144Z,28.30
2023-04-16T16:45:44.528Z,29.31
2023-04-16T16:48:10.984Z,30.39
2023-04-16T16:50:37.357Z,31.53
2023-04-16T16:53:03.827Z,32.30
2023-04-16T16:55:30.714Z,33.24
2023-04-16T16:57:58.286Z,34.02
2023-04-16T17:00:24.880Z,35.27
2023-04-16T17:02:51.595Z,36.20
2023-04-16T17:05:18.151Z,36.81
2023-04-16T17:07:45.098Z,38.29
2023-04-16T17:10:15.166Z,40.05
2023-04-16T17:12:41.949Z,41.76
2023-04-16T17:15:09.063Z,43.66
2023-04-16T17:17:35.784Z,44.34
2023-04-16T17:20:08.041Z,46.20
2023-04-16T17:22:35.285Z,47.36
2023-04-16T17:25:01.749Z,47.96
2023-04-16T17:27:28.789Z,48.75
2023-04-16T17:29:59.471Z,49.09
2023-04-16T17:32:26.211Z,49.22
2023-04-16T17:34:56.774Z,49.99
2023-04-16T17:37:23.331Z,50.65
2023-04-16T17:39:50.813Z,51.22
2023-04-16T17:42:17.345Z,51.36
2023-04-16T17:44:43.990Z,51.71
2023-04-16T17:47:11.156Z,52.11
2023-04-16T17:49:37.563Z,52.49
2023-04-16T17:52:04.420Z,52.23
2023-04-16T17:54:32.084Z,52.61
2023-04-16T17:56:58.698Z,52.55
2023-04-16T17:59:25.349Z,53.11
2023-04-16T18:01:51.975Z,53.08
2023-04-16T18:04:19.158Z,53.02
2023-04-16T18:06:45.995Z,53.15
2023-04-16T18:09:13.565Z,53.12
2023-04-16T18:11:39.979Z,53.32
2023-04-16T18:14:09.127Z,53.13
2023-04-16T18:16:35.616Z,53.42
2023-04-16T18:19:02.016Z,53.49
2023-04-16T18:21:29.908Z,53.56
2023-04-16T18:23:57.013Z,53.68
2023-04-16T18:26:25.395Z,53.92
2023-04-16T18:28:52.758Z,53.84
2023-04-16T18:31:21.373Z,53.80
2023-04-16T18:33:56.440Z,53.94
2023-04-16T18:36:23.968Z,53.91
2023-04-16T18:39:01.014Z,53.78
2023-04-16T18:41:29.197Z,53.82
2023-04-16T18:43:56.096Z,54.41
2023-04-16T18:46:22.552Z,54.17
2023-04-16T18:48:49.135Z,54.16
2023-04-16T18:51:16.283Z,54.54
2023-04-16T18:53:44.689Z,54.74
2023-04-16T18:56:11.333Z,54.66
2023-04-16T18:58:38.153Z,54.80
2023-04-16T19:01:09.918Z,54.91
2023-04-16T19:03:36.660Z,54.79
2023-04-16T19:06:03.985Z,54.87
2023-04-16T19:08:30.387Z,54.80
2023-04-16T19:10:57.013Z,54.81
2023-04-16T19:13:27.040Z,54.86
2023-04-16T19:15:59.036Z,54.90
2023-04-16T19:18:25.929Z,55.07
2023-04-16T19:20:58.795Z,55.10
2023-04-16T19:23:25.269Z,55.01
2023-04-16T19:25:51.700Z,55.19
2023-04-16T19:28:18.402Z,55.08
2023-04-16T19:30:45.976Z,55.15
2023-04-16T19:33:12.773Z,54.93
2023-04-16T19:35:42.218Z,54.76
2023-04-16T19:38:10.755Z,54.59
2023-04-16T19:40:37.714Z,54.83
2023-04-16T19:43:04.791Z,55.12
2023-04-16T19:45:31.377Z,55.29
2023-04-16T19:47:58.348Z,55.41
2023-04-16T19:50:24.964Z,55.16
2023-04-16T19:52:51.334Z,55.32
2023-04-16T19:55:18.394Z,55.32
2023-04-16T19:57:47.298Z,55.66
2023-04-16T20:00:14.290Z,55.88
2023-04-16T20:02:41.299Z,56.13
2023-04-16T20:05:11.721Z,56.03
2023-04-16T20:07:38.257Z,55.93
2023-04-16T20:10:05.088Z,56.02
2023-04-16T20:12:31.479Z,56.23
2023-04-16T20:14:58.146Z,56.54
2023-04-16T20:17:25.277Z,56.81
2023-04-16T20:19:51.639Z,56.75
2023-04-16T20:22:18.279Z,56.74
2023-04-16T20:24:47.772Z,56.80
2023-04-16T20:27:16.192Z,56.91
2023-04-16T20:29:42.499Z,57.12
2023-04-16T20:32:09.234Z,57.36
2023-04-16T20:34:37.337Z,57.78
2023-04-16T20:37:04.085Z,58.23
2023-04-16T20:39:33.523Z,58.82
2023-04-16T20:42:00.297Z,59.01
2023-04-16T20:44:32.473Z,59.56
2023-04-16T20:46:59.053Z,59.97
2023-04-16T20:49:25.409Z,59.97
2023-04-16T20:51:51.759Z,60.17
2023-04-16T20:54:18.264Z,60.23
2023-04-16T20:56:46.993Z,60.33
2023-04-16T20:59:13.917Z,60.45
2023-04-16T21:01:40.393Z,60.58
2023-04-16T21:04:07.197Z,60.70
2023-04-16T21:06:37.626Z,60.79
2023-04-16T21:09:05.267Z,60.86
2023-04-16T21:11:33.670Z,60.68
2023-04-16T21:14:00.559Z,60.70
2023-04-16T21:16:27.092Z,60.50
2023-04-16T21:18:54.915Z,60.59
2023-04-16T21:21:21.675Z,60.60
2023-04-16T21:23:48.508Z,60.56
2023-04-16T21:26:16.264Z,60.42
2023-04-16T21:28:42.619Z,60.50
2023-04-16T21:31:09.049Z,60.76
2023-04-16T21:33:35.507Z,60.83
2023-04-16T21:36:02.009Z,60.77
2023-04-16T21:38:28.383Z,60.89
2023-04-16T21:40:55.169Z,61.17
2023-04-16T21:43:26.372Z,61.45
2023-04-16T21:45:52.905Z,61.49
2023-04-16T21:48:20.035Z,61.57
2023-04-16T21:50:46.550Z,61.49
2023-04-16T21:53:12.858Z,61.48
2023-04-16T21:55:39.973Z,61.42
2023-04-16T21:58:06.444Z,61.38
2023-04-16T22:00:33.129Z,61.61
2023-04-16T22:02:59.661Z,61.76
2023-04-16T22:05:26.230Z,61.90
2023-04-16T22:07:52.628Z,62.27
2023-04-16T22:10:19.113Z,62.74
2023-04-16T22:12:45.845Z,63.06
2023-04-16T22:15:13.031Z,63.22
2023-04-16T22:17:40.140Z,63.38
2023-04-16T22:20:12.520Z,63.42
2023-04-16T22:22:39.961Z,63.85
2023-04-16T22:25:06.918Z,64.36
2023-04-16T22:27:33.878Z,64.84
2023-04-16T22:30:00.998Z,64.03
2023-04-16T22:32:27.525Z,63.76
2023-04-16T22:34:54.017Z,63.75
2023-04-16T22:37:20.319Z,63.85
2023-04-16T22:39:46.780Z,63.84
2023-04-16T22:42:13.131Z,64.38
2023-04-16T22:44:39.780Z,64.93
2023-04-16T22:47:06.612Z,65.50
2023-04-16T22:49:33.404Z,65.90
2023-04-16T22:52:00.644Z,66.04
2023-04-16T22:54:28.491Z,66.36
2023-04-16T22:56:56.032Z,66.41
2023-04-16T22:59:22.592Z,66.36
2023-04-16T23:01:49.503Z,66.28
2023-04-16T23:04:15.946Z,66.14
2023-04-16T23:06:42.542Z,66.04
2023-04-16T23:09:09.581Z,66.19
2023-04-16T23:11:36.105Z,66.27
2023-04-16T23:14:03.793Z,66.49
2023-04-16T23:16:30.602Z,66.56
2023-04-16T23:18:56.938Z,66.55
2023-04-16T23:21:23.363Z,66.47
2023-04-16T23:23:49.930Z,66.38
2023-04-16T23:26:16.622Z,66.28
2023-04-16T23:28:42.954Z,66.15
2023-04-16T23:31:09.331Z,66.05
2023-04-16T23:33:35.986Z,66.20
2023-04-16T23:36:02.396Z,66.34
2023-04-16T23:38:29.219Z,66.50
2023-04-16T23:40:55.572Z,66.51
2023-04-16T23:43:22.595Z,66.22
2023-04-16T23:45:49.702Z,66.01
2023-04-16T23:48:16.192Z,65.99
2023-04-16T23:50:42.549Z,66.05
2023-04-16T23:53:08.987Z,66.05
2023-04-16T23:55:35.449Z,66.21
2023-04-16T23:58:01.913Z,66.75
